LIC0032 LEBA-LEGE
Flight info
| Callsign | LIC0032 |
|---|---|
| Flight time | 1h 14m |
| Altitude | 38000 |
| Route | ALCOL N747 TOSTO M445 SOPET M985 EBROX Z26 LATRO L110 MAMUK |
| Aircraft | A320/M-SDE3FGHIRWY/LB1 |
Departure
| Time | 2026-05-08 13:13 |
|---|---|
| Airport | Córdoba Airport (LEBA) |
Arrival
| Time | 2026-05-08 14:27 |
|---|---|
| Airport | Girona-Costa Brava Airport (LEGE) |
| Time | Latitude | Longitude | Altitude | Speed | Heading |
|---|---|---|---|---|---|
| 2026-05-08 12:53 | 37.84380 | -4.84511 | 313 ft | 0 kts | 116° |
| 2026-05-08 13:07 | 37.84381 | -4.84509 | 313 ft | 0 kts | 104° |
| 2026-05-08 13:07 | 37.84384 | -4.84500 | 313 ft | 3 kts | 72° |
| 2026-05-08 13:07 | 37.84399 | -4.84480 | 312 ft | 3 kts | 40° |
| 2026-05-08 13:07 | 37.84419 | -4.84463 | 313 ft | 5 kts | 32° |
| 2026-05-08 13:08 | 37.84451 | -4.84448 | 312 ft | 6 kts | 358° |
| 2026-05-08 13:08 | 37.84483 | -4.84500 | 312 ft | 8 kts | 296° |
| 2026-05-08 13:08 | 37.84507 | -4.84559 | 312 ft | 7 kts | 298° |
| 2026-05-08 13:08 | 37.84532 | -4.84614 | 312 ft | 8 kts | 304° |
| 2026-05-08 13:09 | 37.84595 | -4.84612 | 310 ft | 11 kts | 28° |
| 2026-05-08 13:09 | 37.84659 | -4.84568 | 310 ft | 10 kts | 28° |
| 2026-05-08 13:09 | 37.84718 | -4.84527 | 312 ft | 10 kts | 28° |
| 2026-05-08 13:09 | 37.84794 | -4.84476 | 310 ft | 19 kts | 28° |
| 2026-05-08 13:10 | 37.84937 | -4.84374 | 310 ft | 22 kts | 30° |
| 2026-05-08 13:10 | 37.85049 | -4.84289 | 310 ft | 17 kts | 32° |
| 2026-05-08 13:10 | 37.85121 | -4.84210 | 312 ft | 11 kts | 55° |
| 2026-05-08 13:10 | 37.85159 | -4.84154 | 314 ft | 6 kts | 24° |
| 2026-05-08 13:11 | 37.85190 | -4.84184 | 313 ft | 8 kts | 272° |
| 2026-05-08 13:11 | 37.85150 | -4.84226 | 311 ft | 6 kts | 208° |
| 2026-05-08 13:11 | 37.85149 | -4.84227 | 311 ft | 0 kts | 208° |
| 2026-05-08 13:12 | 37.85148 | -4.84228 | 311 ft | 3 kts | 208° |
| 2026-05-08 13:12 | 37.84906 | -4.84393 | 312 ft | 80 kts | 209° |
| 2026-05-08 13:12 | 37.84226 | -4.84880 | 309 ft | 143 kts | 210° |
| 2026-05-08 13:13 | 37.83305 | -4.85538 | 841 ft | 149 kts | 211° |
| 2026-05-08 13:13 | 37.82405 | -4.86178 | 1630 ft | 150 kts | 209° |
| 2026-05-08 13:13 | 37.81427 | -4.86856 | 2154 ft | 170 kts | 211° |
| 2026-05-08 13:13 | 37.80321 | -4.87621 | 2621 ft | 194 kts | 210° |
| 2026-05-08 13:14 | 37.79085 | -4.88480 | 3257 ft | 207 kts | 210° |
| 2026-05-08 13:14 | 37.77807 | -4.89363 | 4213 ft | 211 kts | 208° |
| 2026-05-08 13:14 | 37.76514 | -4.90253 | 5161 ft | 213 kts | 209° |
| 2026-05-08 13:14 | 37.75157 | -4.90994 | 6082 ft | 216 kts | 188° |
| 2026-05-08 13:15 | 37.73708 | -4.90624 | 6905 ft | 224 kts | 149° |
| 2026-05-08 13:15 | 37.72739 | -4.89060 | 7721 ft | 237 kts | 110° |
| 2026-05-08 13:15 | 37.72711 | -4.86951 | 8555 ft | 248 kts | 79° |
| 2026-05-08 13:15 | 37.73186 | -4.84830 | 9408 ft | 252 kts | 83° |
| 2026-05-08 13:16 | 37.73105 | -4.82653 | 10179 ft | 249 kts | 112° |
| 2026-05-08 13:16 | 37.72465 | -4.80621 | 10955 ft | 250 kts | 117° |
| 2026-05-08 13:16 | 37.71781 | -4.78578 | 11720 ft | 255 kts | 118° |
| 2026-05-08 13:16 | 37.71082 | -4.76496 | 12484 ft | 260 kts | 118° |
| 2026-05-08 13:17 | 37.70377 | -4.74398 | 13251 ft | 266 kts | 119° |
| 2026-05-08 13:17 | 37.69653 | -4.72229 | 13982 ft | 271 kts | 118° |
| 2026-05-08 13:17 | 37.69189 | -4.69878 | 14643 ft | 285 kts | 96° |
| 2026-05-08 13:17 | 37.69519 | -4.67362 | 15274 ft | 300 kts | 70° |
| 2026-05-08 13:18 | 37.70731 | -4.65110 | 15532 ft | 324 kts | 39° |
| 2026-05-08 13:18 | 37.72613 | -4.63375 | 15757 ft | 346 kts | 32° |
| 2026-05-08 13:18 | 37.74667 | -4.61591 | 15940 ft | 370 kts | 33° |
| 2026-05-08 13:18 | 37.76851 | -4.59688 | 16091 ft | 393 kts | 33° |
| 2026-05-08 13:19 | 37.79136 | -4.57680 | 16532 ft | 405 kts | 33° |
| 2026-05-08 13:19 | 37.81427 | -4.55648 | 17135 ft | 411 kts | 33° |
| 2026-05-08 13:19 | 37.83711 | -4.53428 | 17764 ft | 418 kts | 42° |
| 2026-05-08 13:19 | 37.85645 | -4.50656 | 18361 ft | 424 kts | 55° |
| 2026-05-08 13:20 | 37.87110 | -4.47412 | 18917 ft | 427 kts | 66° |
| 2026-05-08 13:20 | 37.88345 | -4.43970 | 19510 ft | 431 kts | 68° |
| 2026-05-08 13:20 | 37.89531 | -4.40467 | 20069 ft | 435 kts | 69° |
| 2026-05-08 13:20 | 37.90696 | -4.36911 | 20662 ft | 439 kts | 69° |
| 2026-05-08 13:21 | 37.91863 | -4.33313 | 21243 ft | 444 kts | 69° |
| 2026-05-08 13:21 | 37.93044 | -4.29682 | 21802 ft | 448 kts | 69° |
| 2026-05-08 13:21 | 37.94247 | -4.26021 | 22390 ft | 453 kts | 69° |
| 2026-05-08 13:21 | 37.95457 | -4.22371 | 22924 ft | 457 kts | 68° |
| 2026-05-08 13:22 | 37.96700 | -4.18648 | 23474 ft | 461 kts | 68° |
| 2026-05-08 13:22 | 37.97958 | -4.14888 | 23921 ft | 465 kts | 68° |
| 2026-05-08 13:22 | 37.99226 | -4.11096 | 24363 ft | 469 kts | 68° |
| 2026-05-08 13:22 | 38.00499 | -4.07275 | 24803 ft | 472 kts | 68° |
| 2026-05-08 13:23 | 38.01780 | -4.03425 | 25214 ft | 476 kts | 68° |
| 2026-05-08 13:23 | 38.03068 | -3.99535 | 25631 ft | 480 kts | 68° |
| 2026-05-08 13:23 | 38.03922 | -3.96952 | 25904 ft | 482 kts | 68° |
| 2026-05-08 13:23 | 38.05223 | -3.93017 | 26306 ft | 485 kts | 68° |
| 2026-05-08 13:24 | 38.06534 | -3.89054 | 26703 ft | 489 kts | 68° |
| 2026-05-08 13:24 | 38.08280 | -3.83763 | 27205 ft | 493 kts | 68° |
| 2026-05-08 13:24 | 38.09607 | -3.79731 | 27587 ft | 497 kts | 68° |
| 2026-05-08 13:24 | 38.10942 | -3.75666 | 27966 ft | 500 kts | 68° |
| 2026-05-08 13:25 | 38.11830 | -3.72962 | 28206 ft | 502 kts | 68° |
| 2026-05-08 13:25 | 38.13631 | -3.67466 | 28690 ft | 506 kts | 68° |
| 2026-05-08 13:25 | 38.14522 | -3.64717 | 28925 ft | 508 kts | 70° |
| 2026-05-08 13:25 | 38.15598 | -3.60443 | 29256 ft | 510 kts | 78° |
| 2026-05-08 13:26 | 38.16351 | -3.56039 | 29589 ft | 512 kts | 80° |
| 2026-05-08 13:26 | 38.17091 | -3.51592 | 29913 ft | 515 kts | 80° |
| 2026-05-08 13:26 | 38.18072 | -3.45716 | 30273 ft | 519 kts | 80° |
| 2026-05-08 13:26 | 38.18588 | -3.42634 | 30440 ft | 521 kts | 80° |
| 2026-05-08 13:27 | 38.19593 | -3.36655 | 30742 ft | 525 kts | 80° |
| 2026-05-08 13:27 | 38.20100 | -3.33639 | 30897 ft | 527 kts | 80° |
| 2026-05-08 13:27 | 38.20870 | -3.29066 | 31124 ft | 530 kts | 79° |
| 2026-05-08 13:27 | 38.21643 | -3.24468 | 31337 ft | 533 kts | 79° |
| 2026-05-08 13:28 | 38.22413 | -3.19859 | 31625 ft | 534 kts | 80° |
| 2026-05-08 13:28 | 38.23178 | -3.15241 | 31928 ft | 534 kts | 80° |
| 2026-05-08 13:28 | 38.23942 | -3.10608 | 32222 ft | 535 kts | 80° |
| 2026-05-08 13:28 | 38.24702 | -3.05973 | 32517 ft | 536 kts | 80° |
| 2026-05-08 13:29 | 38.25465 | -3.01318 | 32810 ft | 538 kts | 80° |
| 2026-05-08 13:29 | 38.26226 | -2.96661 | 33112 ft | 539 kts | 80° |
| 2026-05-08 13:29 | 38.26976 | -2.92050 | 33426 ft | 540 kts | 80° |
| 2026-05-08 13:29 | 38.27734 | -2.87377 | 33747 ft | 540 kts | 80° |
| 2026-05-08 13:30 | 38.28492 | -2.82693 | 34043 ft | 541 kts | 80° |
| 2026-05-08 13:30 | 38.29252 | -2.78000 | 34336 ft | 541 kts | 80° |
| 2026-05-08 13:30 | 38.30009 | -2.73318 | 34667 ft | 540 kts | 79° |
| 2026-05-08 13:30 | 38.30767 | -2.68641 | 35018 ft | 538 kts | 80° |
| 2026-05-08 13:31 | 38.31520 | -2.63990 | 35349 ft | 536 kts | 80° |
| 2026-05-08 13:31 | 38.32266 | -2.59353 | 35684 ft | 533 kts | 80° |
| 2026-05-08 13:31 | 38.32994 | -2.54796 | 36016 ft | 531 kts | 80° |
| 2026-05-08 13:31 | 38.33726 | -2.50188 | 36312 ft | 529 kts | 80° |
| 2026-05-08 13:32 | 38.34451 | -2.45607 | 36620 ft | 528 kts | 80° |
| 2026-05-08 13:32 | 38.35174 | -2.41031 | 36882 ft | 526 kts | 80° |
| 2026-05-08 13:32 | 38.35851 | -2.36463 | 37158 ft | 523 kts | 85° |
| 2026-05-08 13:32 | 38.36125 | -2.31863 | 37432 ft | 518 kts | 93° |
| 2026-05-08 13:33 | 38.36159 | -2.27279 | 37682 ft | 517 kts | 93° |
| 2026-05-08 13:33 | 38.36195 | -2.22706 | 37913 ft | 516 kts | 92° |
| 2026-05-08 13:33 | 38.36273 | -2.13630 | 37976 ft | 515 kts | 92° |
| 2026-05-08 13:34 | 38.36350 | -2.04523 | 37978 ft | 514 kts | 92° |
| 2026-05-08 13:34 | 38.37368 | -1.95492 | 37982 ft | 519 kts | 73° |
| 2026-05-08 13:35 | 38.40453 | -1.87212 | 37987 ft | 518 kts | 53° |
| 2026-05-08 13:35 | 38.44816 | -1.80013 | 37994 ft | 517 kts | 49° |
| 2026-05-08 13:36 | 38.49244 | -1.72784 | 38004 ft | 517 kts | 50° |
| 2026-05-08 13:36 | 38.53661 | -1.65537 | 38012 ft | 517 kts | 50° |
| 2026-05-08 13:37 | 38.58085 | -1.58270 | 38016 ft | 517 kts | 50° |
| 2026-05-08 13:37 | 38.62507 | -1.51017 | 38018 ft | 517 kts | 50° |
| 2026-05-08 13:38 | 38.66895 | -1.43813 | 38021 ft | 517 kts | 50° |
| 2026-05-08 13:38 | 38.71300 | -1.36542 | 38025 ft | 516 kts | 51° |
| 2026-05-08 13:39 | 38.75693 | -1.29266 | 38024 ft | 516 kts | 51° |
| 2026-05-08 13:39 | 38.80039 | -1.22077 | 38016 ft | 516 kts | 51° |
| 2026-05-08 13:40 | 38.84392 | -1.14866 | 38017 ft | 516 kts | 51° |
| 2026-05-08 13:40 | 38.88788 | -1.07564 | 38019 ft | 515 kts | 51° |
| 2026-05-08 13:41 | 38.93163 | -1.00267 | 38018 ft | 515 kts | 51° |
| 2026-05-08 13:41 | 38.97529 | -0.92967 | 38015 ft | 515 kts | 51° |
| 2026-05-08 13:42 | 39.01883 | -0.85668 | 38010 ft | 515 kts | 52° |
| 2026-05-08 13:42 | 39.06247 | -0.78457 | 38011 ft | 514 kts | 46° |
| 2026-05-08 13:43 | 39.11508 | -0.72315 | 38012 ft | 510 kts | 37° |
| 2026-05-08 13:43 | 39.16986 | -0.66500 | 38018 ft | 510 kts | 37° |
| 2026-05-08 13:44 | 39.22446 | -0.60667 | 38028 ft | 510 kts | 37° |
| 2026-05-08 13:44 | 39.27868 | -0.54854 | 38026 ft | 510 kts | 37° |
| 2026-05-08 13:45 | 39.33434 | -0.49190 | 38025 ft | 509 kts | 34° |
| 2026-05-08 13:45 | 39.39131 | -0.43789 | 38023 ft | 508 kts | 33° |
| 2026-05-08 13:46 | 39.44835 | -0.38374 | 38026 ft | 508 kts | 34° |
| 2026-05-08 13:46 | 39.50487 | -0.32867 | 38026 ft | 509 kts | 34° |
| 2026-05-08 13:47 | 39.56080 | -0.27357 | 38027 ft | 509 kts | 34° |
| 2026-05-08 13:47 | 39.61719 | -0.21814 | 38028 ft | 508 kts | 34° |
| 2026-05-08 13:48 | 39.67362 | -0.16276 | 38031 ft | 508 kts | 34° |
| 2026-05-08 13:48 | 39.72999 | -0.10733 | 38032 ft | 508 kts | 34° |
| 2026-05-08 13:49 | 39.78587 | -0.05220 | 38036 ft | 508 kts | 35° |
| 2026-05-08 13:49 | 39.84095 | 0.00534 | 38033 ft | 509 kts | 43° |
| 2026-05-08 13:50 | 39.88961 | 0.07254 | 38038 ft | 510 kts | 46° |
| 2026-05-08 13:50 | 39.93800 | 0.14003 | 38041 ft | 510 kts | 46° |
| 2026-05-08 13:51 | 39.98611 | 0.20700 | 38040 ft | 509 kts | 46° |
| 2026-05-08 13:51 | 40.03448 | 0.27437 | 38042 ft | 509 kts | 46° |
| 2026-05-08 13:52 | 40.08285 | 0.34192 | 38041 ft | 509 kts | 46° |
| 2026-05-08 13:52 | 40.13100 | 0.40952 | 38039 ft | 508 kts | 46° |
| 2026-05-08 13:53 | 40.17886 | 0.47679 | 38035 ft | 508 kts | 46° |
| 2026-05-08 13:53 | 40.22705 | 0.54445 | 38031 ft | 508 kts | 46° |
| 2026-05-08 13:54 | 40.27509 | 0.61217 | 38032 ft | 507 kts | 46° |
| 2026-05-08 13:54 | 40.32294 | 0.68000 | 38030 ft | 507 kts | 46° |
| 2026-05-08 13:55 | 40.37038 | 0.74739 | 38031 ft | 506 kts | 46° |
| 2026-05-08 13:56 | 40.44188 | 0.84898 | 38030 ft | 505 kts | 46° |
| 2026-05-08 13:56 | 40.48941 | 0.91666 | 38033 ft | 504 kts | 46° |
| 2026-05-08 13:57 | 40.53685 | 0.98431 | 38034 ft | 502 kts | 46° |
| 2026-05-08 13:57 | 40.58401 | 1.05190 | 38033 ft | 501 kts | 46° |
| 2026-05-08 13:58 | 40.63074 | 1.11910 | 38034 ft | 500 kts | 46° |
| 2026-05-08 13:58 | 40.67820 | 1.18582 | 38032 ft | 497 kts | 40° |
| 2026-05-08 13:59 | 40.73492 | 1.23620 | 38034 ft | 489 kts | 21° |
| 2026-05-08 13:59 | 40.79884 | 1.26401 | 38038 ft | 482 kts | 12° |
| 2026-05-08 14:00 | 40.86359 | 1.28719 | 38042 ft | 482 kts | 12° |
| 2026-05-08 14:00 | 40.92776 | 1.31033 | 38046 ft | 481 kts | 12° |
| 2026-05-08 14:01 | 40.99227 | 1.33358 | 38045 ft | 480 kts | 12° |
| 2026-05-08 14:01 | 41.05676 | 1.35691 | 37506 ft | 483 kts | 12° |
| 2026-05-08 14:01 | 41.08936 | 1.36867 | 36612 ft | 486 kts | 12° |
| 2026-05-08 14:02 | 41.12205 | 1.38045 | 35698 ft | 489 kts | 13° |
| 2026-05-08 14:02 | 41.15500 | 1.39233 | 34722 ft | 493 kts | 13° |
| 2026-05-08 14:02 | 41.18823 | 1.40438 | 33722 ft | 497 kts | 13° |
| 2026-05-08 14:02 | 41.22132 | 1.41640 | 32551 ft | 502 kts | 13° |
| 2026-05-08 14:03 | 41.25478 | 1.42861 | 31998 ft | 494 kts | 13° |
| 2026-05-08 14:03 | 41.28780 | 1.44071 | 31258 ft | 491 kts | 13° |
| 2026-05-08 14:03 | 41.32062 | 1.45271 | 30557 ft | 487 kts | 13° |
| 2026-05-08 14:03 | 41.35323 | 1.46456 | 29806 ft | 485 kts | 13° |
| 2026-05-08 14:04 | 41.38560 | 1.47635 | 29108 ft | 480 kts | 13° |
| 2026-05-08 14:04 | 41.41763 | 1.48804 | 28428 ft | 475 kts | 13° |
| 2026-05-08 14:04 | 41.44933 | 1.49962 | 27758 ft | 471 kts | 13° |
| 2026-05-08 14:04 | 41.48083 | 1.51117 | 27100 ft | 467 kts | 13° |
| 2026-05-08 14:05 | 41.51200 | 1.52264 | 26442 ft | 463 kts | 13° |
| 2026-05-08 14:05 | 41.54253 | 1.53388 | 25813 ft | 460 kts | 13° |
| 2026-05-08 14:05 | 41.57326 | 1.54515 | 25205 ft | 456 kts | 13° |
| 2026-05-08 14:05 | 41.60375 | 1.55629 | 24605 ft | 453 kts | 13° |
| 2026-05-08 14:06 | 41.63409 | 1.56736 | 24010 ft | 450 kts | 13° |
| 2026-05-08 14:06 | 41.66420 | 1.57839 | 23404 ft | 448 kts | 13° |
| 2026-05-08 14:06 | 41.69413 | 1.58945 | 22816 ft | 444 kts | 13° |
| 2026-05-08 14:06 | 41.72300 | 1.60353 | 22257 ft | 442 kts | 26° |
| 2026-05-08 14:07 | 41.74818 | 1.62664 | 21707 ft | 439 kts | 43° |
| 2026-05-08 14:07 | 41.76793 | 1.65735 | 21167 ft | 433 kts | 59° |
| 2026-05-08 14:07 | 41.78104 | 1.69239 | 20629 ft | 420 kts | 73° |
| 2026-05-08 14:07 | 41.78794 | 1.72966 | 20089 ft | 407 kts | 82° |
| 2026-05-08 14:08 | 41.79299 | 1.76447 | 19587 ft | 399 kts | 82° |
| 2026-05-08 14:08 | 41.79832 | 1.80155 | 19029 ft | 391 kts | 82° |
| 2026-05-08 14:08 | 41.80339 | 1.83703 | 18505 ft | 384 kts | 82° |
| 2026-05-08 14:08 | 41.80834 | 1.87191 | 17939 ft | 377 kts | 82° |
| 2026-05-08 14:09 | 41.81320 | 1.90606 | 17430 ft | 369 kts | 82° |
| 2026-05-08 14:09 | 41.81798 | 1.93953 | 16937 ft | 362 kts | 82° |
| 2026-05-08 14:09 | 41.82266 | 1.97238 | 16457 ft | 355 kts | 82° |
| 2026-05-08 14:09 | 41.82723 | 2.00462 | 15976 ft | 349 kts | 82° |
| 2026-05-08 14:10 | 41.83166 | 2.03590 | 15534 ft | 343 kts | 82° |
| 2026-05-08 14:10 | 41.83623 | 2.06705 | 15081 ft | 338 kts | 78° |
| 2026-05-08 14:10 | 41.84341 | 2.09736 | 14659 ft | 348 kts | 72° |
| 2026-05-08 14:10 | 41.85150 | 2.12825 | 14222 ft | 352 kts | 72° |
| 2026-05-08 14:11 | 41.85953 | 2.15916 | 13780 ft | 350 kts | 73° |
| 2026-05-08 14:11 | 41.86749 | 2.18992 | 13318 ft | 348 kts | 73° |
| 2026-05-08 14:11 | 41.87534 | 2.22044 | 12887 ft | 345 kts | 73° |
| 2026-05-08 14:11 | 41.88313 | 2.25077 | 12451 ft | 342 kts | 73° |
| 2026-05-08 14:12 | 41.89079 | 2.28049 | 12033 ft | 340 kts | 73° |
| 2026-05-08 14:12 | 41.89849 | 2.31037 | 11623 ft | 338 kts | 73° |
| 2026-05-08 14:12 | 41.90616 | 2.34016 | 11207 ft | 336 kts | 73° |
| 2026-05-08 14:12 | 41.91377 | 2.36976 | 10795 ft | 334 kts | 73° |
| 2026-05-08 14:13 | 41.92131 | 2.39914 | 10377 ft | 332 kts | 73° |
| 2026-05-08 14:13 | 41.92866 | 2.42785 | 10240 ft | 319 kts | 73° |
| 2026-05-08 14:13 | 41.93572 | 2.45544 | 10110 ft | 307 kts | 73° |
| 2026-05-08 14:13 | 41.94257 | 2.48221 | 9940 ft | 300 kts | 73° |
| 2026-05-08 14:14 | 41.94924 | 2.50838 | 9727 ft | 299 kts | 73° |
| 2026-05-08 14:14 | 41.95596 | 2.53469 | 9419 ft | 297 kts | 73° |
| 2026-05-08 14:14 | 41.96265 | 2.56085 | 9101 ft | 295 kts | 73° |
| 2026-05-08 14:14 | 41.96928 | 2.58689 | 8784 ft | 294 kts | 73° |
| 2026-05-08 14:15 | 41.97586 | 2.61281 | 8481 ft | 293 kts | 73° |
| 2026-05-08 14:15 | 41.98244 | 2.63870 | 8171 ft | 292 kts | 73° |
| 2026-05-08 14:15 | 41.98897 | 2.66445 | 7856 ft | 291 kts | 73° |
| 2026-05-08 14:15 | 41.99545 | 2.69009 | 7544 ft | 289 kts | 73° |
| 2026-05-08 14:16 | 42.00182 | 2.71535 | 7239 ft | 289 kts | 73° |
| 2026-05-08 14:16 | 42.00822 | 2.74074 | 6926 ft | 286 kts | 73° |
| 2026-05-08 14:16 | 42.01455 | 2.76580 | 6604 ft | 279 kts | 73° |
| 2026-05-08 14:16 | 42.02234 | 2.78919 | 6306 ft | 271 kts | 56° |
| 2026-05-08 14:17 | 42.03519 | 2.80704 | 6001 ft | 263 kts | 34° |
| 2026-05-08 14:17 | 42.05132 | 2.81747 | 5714 ft | 253 kts | 15° |
| 2026-05-08 14:17 | 42.06808 | 2.82392 | 5449 ft | 247 kts | 14° |
| 2026-05-08 14:17 | 42.08441 | 2.83024 | 5184 ft | 242 kts | 14° |
| 2026-05-08 14:18 | 42.10044 | 2.83648 | 4926 ft | 238 kts | 15° |
| 2026-05-08 14:18 | 42.11624 | 2.84263 | 4652 ft | 234 kts | 15° |
| 2026-05-08 14:18 | 42.13151 | 2.84858 | 4412 ft | 228 kts | 15° |
| 2026-05-08 14:18 | 42.14635 | 2.85435 | 4357 ft | 216 kts | 15° |
| 2026-05-08 14:19 | 42.16051 | 2.85986 | 4305 ft | 210 kts | 15° |
| 2026-05-08 14:19 | 42.17457 | 2.86526 | 4260 ft | 210 kts | 12° |
| 2026-05-08 14:19 | 42.18876 | 2.86443 | 4218 ft | 204 kts | 332° |
| 2026-05-08 14:19 | 42.19910 | 2.85242 | 4177 ft | 195 kts | 294° |
| 2026-05-08 14:20 | 42.20194 | 2.83533 | 4133 ft | 185 kts | 258° |
| 2026-05-08 14:20 | 42.19739 | 2.82003 | 4094 ft | 177 kts | 227° |
| 2026-05-08 14:20 | 42.18755 | 2.81066 | 4053 ft | 175 kts | 197° |
| 2026-05-08 14:20 | 42.17547 | 2.80992 | 4016 ft | 178 kts | 168° |
| 2026-05-08 14:21 | 42.16344 | 2.81395 | 3980 ft | 178 kts | 168° |
| 2026-05-08 14:21 | 42.15137 | 2.81794 | 3940 ft | 179 kts | 169° |
| 2026-05-08 14:21 | 42.13925 | 2.82193 | 3910 ft | 180 kts | 169° |
| 2026-05-08 14:21 | 42.12712 | 2.82592 | 3863 ft | 179 kts | 169° |
| 2026-05-08 14:22 | 42.11503 | 2.82988 | 3823 ft | 179 kts | 169° |
| 2026-05-08 14:22 | 42.10305 | 2.83371 | 3803 ft | 179 kts | 173° |
| 2026-05-08 14:22 | 42.09088 | 2.83268 | 3754 ft | 177 kts | 196° |
| 2026-05-08 14:22 | 42.07907 | 2.82815 | 3644 ft | 175 kts | 196° |
| 2026-05-08 14:23 | 42.06772 | 2.82383 | 3570 ft | 166 kts | 197° |
| 2026-05-08 14:23 | 42.05681 | 2.81968 | 3374 ft | 159 kts | 195° |
| 2026-05-08 14:23 | 42.04655 | 2.81577 | 3209 ft | 147 kts | 196° |
| 2026-05-08 14:23 | 42.03719 | 2.81222 | 2998 ft | 134 kts | 196° |
| 2026-05-08 14:24 | 42.02831 | 2.80884 | 2823 ft | 130 kts | 196° |
| 2026-05-08 14:24 | 42.01972 | 2.80558 | 2658 ft | 129 kts | 195° |
| 2026-05-08 14:24 | 42.01112 | 2.80231 | 2501 ft | 127 kts | 195° |
| 2026-05-08 14:24 | 42.00261 | 2.79908 | 2330 ft | 128 kts | 196° |
| 2026-05-08 14:25 | 41.99407 | 2.79584 | 2174 ft | 128 kts | 195° |
| 2026-05-08 14:25 | 41.98544 | 2.79256 | 1984 ft | 129 kts | 194° |
| 2026-05-08 14:25 | 41.97694 | 2.78934 | 1809 ft | 127 kts | 194° |
| 2026-05-08 14:25 | 41.96848 | 2.78613 | 1635 ft | 127 kts | 195° |
| 2026-05-08 14:26 | 41.96001 | 2.78292 | 1464 ft | 127 kts | 197° |
| 2026-05-08 14:26 | 41.95147 | 2.77968 | 1281 ft | 126 kts | 196° |
| 2026-05-08 14:26 | 41.94319 | 2.77654 | 1107 ft | 126 kts | 195° |
| 2026-05-08 14:26 | 41.93479 | 2.77336 | 948 ft | 125 kts | 194° |
| 2026-05-08 14:27 | 41.92645 | 2.77021 | 781 ft | 126 kts | 193° |
| 2026-05-08 14:27 | 41.91809 | 2.76704 | 621 ft | 124 kts | 193° |
| 2026-05-08 14:27 | 41.90981 | 2.76399 | 464 ft | 117 kts | 192° |
| 2026-05-08 14:27 | 41.90406 | 2.76180 | 439 ft | 44 kts | 197° |
| 2026-05-08 14:28 | 41.90202 | 2.76104 | 432 ft | 29 kts | 195° |
| 2026-05-08 14:28 | 41.90081 | 2.76128 | 431 ft | 17 kts | 111° |
| 2026-05-08 14:28 | 41.90055 | 2.76257 | 434 ft | 11 kts | 106° |
| 2026-05-08 14:28 | 41.90042 | 2.76319 | 428 ft | 2 kts | 105° |
| 2026-05-08 14:29 | 41.90038 | 2.76338 | 431 ft | 2 kts | 104° |
| 2026-05-08 14:29 | 41.90036 | 2.76353 | 434 ft | 1 kts | 104° |
| 2026-05-08 14:29 | 41.90032 | 2.76370 | 428 ft | 3 kts | 104° |
| 2026-05-08 14:29 | 41.90025 | 2.76405 | 434 ft | 5 kts | 102° |
| 2026-05-08 14:30 | 41.90028 | 2.76437 | 434 ft | 7 kts | 73° |
| 2026-05-08 14:30 | 41.90056 | 2.76462 | 428 ft | 3 kts | 15° |
| 2026-05-08 14:30 | 41.90070 | 2.76470 | 428 ft | 2 kts | 33° |
| 2026-05-08 14:30 | 41.90075 | 2.76502 | 432 ft | 3 kts | 99° |
| 2026-05-08 14:31 | 41.90069 | 2.76528 | 432 ft | 3 kts | 107° |
| 2026-05-08 14:31 | 41.90066 | 2.76542 | 436 ft | 0 kts | 107° |
| 2026-05-08 14:31 | 41.90065 | 2.76544 | 436 ft | 0 kts | 107° |